sensor_id;sensor_type;location;lat;lon;timestamp;pressure;altitude;pressure_sealevel;temperature;humidity
5500;BME280;2772;42.700;23.304;2023-08-21T00:00:08;95447.25;;;24.34;100.00
5500;BME280;2772;42.700;23.304;2023-08-21T00:02:36;95451.09;;;24.26;100.00
5500;BME280;2772;42.700;23.304;2023-08-21T00:05:03;95449.94;;;24.30;100.00
5500;BME280;2772;42.700;23.304;2023-08-21T00:07:30;95458.53;;;24.39;100.00
5500;BME280;2772;42.700;23.304;2023-08-21T00:09:57;95459.66;;;24.31;100.00
5500;BME280;2772;42.700;23.304;2023-08-21T00:12:23;95459.28;;;24.33;100.00
5500;BME280;2772;42.700;23.304;2023-08-21T00:14:50;95465.16;;;24.38;100.00
5500;BME280;2772;42.700;23.304;2023-08-21T00:17:17;95458.50;;;24.36;100.00
5500;BME280;2772;42.700;23.304;2023-08-21T00:19:45;95456.19;;;24.31;100.00
5500;BME280;2772;42.700;23.304;2023-08-21T00:22:12;95458.50;;;24.29;100.00
5500;BME280;2772;42.700;23.304;2023-08-21T00:24:38;95448.03;;;24.31;100.00
5500;BME280;2772;42.700;23.304;2023-08-21T00:27:05;95456.19;;;24.31;100.00
5500;BME280;2772;42.700;23.304;2023-08-21T00:29:32;95457.31;;;24.23;100.00
5500;BME280;2772;42.700;23.304;2023-08-21T00:31:58;95453.41;;;24.17;100.00
5500;BME280;2772;42.700;23.304;2023-08-21T00:34:25;95451.84;;;24.16;100.00
5500;BME280;2772;42.700;23.304;2023-08-21T00:36:53;95460.78;;;24.13;100.00
5500;BME280;2772;42.700;23.304;2023-08-21T00:39:20;95456.16;;;24.17;100.00
5500;BME280;2772;42.700;23.304;2023-08-21T00:41:47;95456.88;;;24.07;100.00
5500;BME280;2772;42.700;23.304;2023-08-21T00:44:14;95460.78;;;24.06;100.00
5500;BME280;2772;42.700;23.304;2023-08-21T00:46:40;95462.28;;;24.03;100.00
5500;BME280;2772;42.700;23.304;2023-08-21T00:49:07;95457.63;;;24.04;100.00
5500;BME280;2772;42.700;23.304;2023-08-21T00:51:36;95457.59;;;23.97;100.00
5500;BME280;2772;42.700;23.304;2023-08-21T00:54:04;95454.06;;;23.93;100.00
5500;BME280;2772;42.700;23.304;2023-08-21T00:56:31;95463.44;;;23.99;100.00
5500;BME280;2772;42.700;23.304;2023-08-21T00:58:58;95457.56;;;23.93;100.00
5500;BME280;2772;42.700;23.304;2023-08-21T01:01:24;95459.97;;;24.02;100.00
5500;BME280;2772;42.700;23.304;2023-08-21T01:03:51;95452.50;;;23.92;100.00
5500;BME280;2772;42.700;23.304;2023-08-21T01:06:19;95456.44;;;23.98;100.00
5500;BME280;2772;42.700;23.304;2023-08-21T01:08:53;95468.06;;;23.95;100.00
5500;BME280;2772;42.700;23.304;2023-08-21T01:11:26;95463.03;;;23.97;100.00
5500;BME280;2772;42.700;23.304;2023-08-21T01:14:03;95465.72;;;23.90;100.00
5500;BME280;2772;42.700;23.304;2023-08-21T01:16:34;95461.44;;;23.89;100.00
5500;BME280;2772;42.700;23.304;2023-08-21T01:19:01;95459.03;;;23.77;100.00
5500;BME280;2772;42.700;23.304;2023-08-21T01:21:30;95457.91;;;23.78;100.00
5500;BME280;2772;42.700;23.304;2023-08-21T01:23:58;95459.09;;;23.84;100.00
5500;BME280;2772;42.700;23.304;2023-08-21T01:26:25;95468.38;;;23.76;100.00
5500;BME280;2772;42.700;23.304;2023-08-21T01:28:52;95464.91;;;23.82;100.00
5500;BME280;2772;42.700;23.304;2023-08-21T01:31:23;95463.75;;;23.87;100.00
5500;BME280;2772;42.700;23.304;2023-08-21T01:33:54;95463.75;;;23.87;100.00
5500;BME280;2772;42.700;23.304;2023-08-21T01:36:24;95468.41;;;23.86;100.00
5500;BME280;2772;42.700;23.304;2023-08-21T01:38:52;95473.78;;;23.72;100.00
5500;BME280;2772;42.700;23.304;2023-08-21T01:41:23;95473.03;;;23.75;100.00
5500;BME280;2772;42.700;23.304;2023-08-21T01:43:49;95463.63;;;23.59;100.00
5500;BME280;2772;42.700;23.304;2023-08-21T01:46:16;95464.44;;;23.66;100.00
5500;BME280;2772;42.700;23.304;2023-08-21T01:48:43;95463.63;;;23.66;100.00
5500;BME280;2772;42.700;23.304;2023-08-21T01:51:10;95461.38;;;23.75;100.00
5500;BME280;2772;42.700;23.304;2023-08-21T01:53:37;95462.94;;;23.76;100.00
5500;BME280;2772;42.700;23.304;2023-08-21T01:56:04;95466.84;;;23.82;100.00
5500;BME280;2772;42.700;23.304;2023-08-21T01:58:32;95470.66;;;23.67;100.00
5500;BME280;2772;42.700;23.304;2023-08-21T02:00:58;95466.34;;;23.66;100.00
5500;BME280;2772;42.700;23.304;2023-08-21T02:03:26;95462.84;;;23.62;100.00
5500;BME280;2772;42.700;23.304;2023-08-21T02:05:55;95461.31;;;23.61;100.00
5500;BME280;2772;42.700;23.304;2023-08-21T02:08:22;95458.59;;;23.61;100.00
5500;BME280;2772;42.700;23.304;2023-08-21T02:10:49;95464.03;;;23.61;100.00
5500;BME280;2772;42.700;23.304;2023-08-21T02:13:17;95465.97;;;23.64;100.00
5500;BME280;2772;42.700;23.304;2023-08-21T02:15:45;95465.56;;;23.62;100.00
5500;BME280;2772;42.700;23.304;2023-08-21T02:18:12;95466.66;;;23.50;100.00
5500;BME280;2772;42.700;23.304;2023-08-21T02:20:39;95468.19;;;23.44;100.00
5500;BME280;2772;42.700;23.304;2023-08-21T02:23:06;95470.50;;;23.45;100.00
5500;BME280;2772;42.700;23.304;2023-08-21T02:25:32;95465.84;;;23.42;100.00
5500;BME280;2772;42.700;23.304;2023-08-21T02:27:59;95468.56;;;23.42;100.00
5500;BME280;2772;42.700;23.304;2023-08-21T02:30:27;95463.53;;;23.44;100.00
5500;BME280;2772;42.700;23.304;2023-08-21T02:32:55;95463.16;;;23.46;100.00
5500;BME280;2772;42.700;23.304;2023-08-21T02:35:22;95452.28;;;23.46;100.00
5500;BME280;2772;42.700;23.304;2023-08-21T02:37:49;95461.16;;;23.39;100.00
5500;BME280;2772;42.700;23.304;2023-08-21T02:40:16;95461.09;;;23.29;100.00
5500;BME280;2772;42.700;23.304;2023-08-21T02:42:43;95457.91;;;23.23;100.00
5500;BME280;2772;42.700;23.304;2023-08-21T02:45:10;95457.06;;;23.16;100.00
5500;BME280;2772;42.700;23.304;2023-08-21T02:47:37;95454.81;;;23.21;100.00
5500;BME280;2772;42.700;23.304;2023-08-21T02:50:06;95460.13;;;23.07;100.00
5500;BME280;2772;42.700;23.304;2023-08-21T02:52:34;95464.41;;;23.08;100.00
5500;BME280;2772;42.700;23.304;2023-08-21T02:55:01;95457.34;;;23.00;100.00
5500;BME280;2772;42.700;23.304;2023-08-21T02:57:28;95459.16;;;22.86;100.00
5500;BME280;2772;42.700;23.304;2023-08-21T02:59:56;95456.94;;;22.98;100.00
5500;BME280;2772;42.700;23.304;2023-08-21T03:02:23;95474.81;;;22.99;100.00
5500;BME280;2772;42.700;23.304;2023-08-21T03:04:49;95463.13;;;22.95;100.00
5500;BME280;2772;42.700;23.304;2023-08-21T03:07:18;95461.56;;;22.94;100.00
5500;BME280;2772;42.700;23.304;2023-08-21T03:09:45;95470.47;;;22.91;100.00
5500;BME280;2772;42.700;23.304;2023-08-21T03:12:14;95477.13;;;22.97;100.00
5500;BME280;2772;42.700;23.304;2023-08-21T03:14:41;95477.03;;;22.90;100.00
5500;BME280;2772;42.700;23.304;2023-08-21T03:17:08;95480.13;;;22.85;100.00
5500;BME280;2772;42.700;23.304;2023-08-21T03:19:34;95477.75;;;22.80;100.00
5500;BME280;2772;42.700;23.304;2023-08-21T03:22:01;95481.28;;;22.84;100.00
5500;BME280;2772;42.700;23.304;2023-08-21T03:24:29;95478.97;;;22.86;100.00
5500;BME280;2772;42.700;23.304;2023-08-21T03:26:56;95480.13;;;22.85;100.00
5500;BME280;2772;42.700;23.304;2023-08-21T03:29:23;95484.72;;;22.78;100.00
5500;BME280;2772;42.700;23.304;2023-08-21T03:31:50;95478.75;;;22.62;100.00
5500;BME280;2772;42.700;23.304;2023-08-21T03:34:17;95485.06;;;22.73;100.00
5500;BME280;2772;42.700;23.304;2023-08-21T03:36:43;95486.66;;;22.77;100.00
5500;BME280;2772;42.700;23.304;2023-08-21T03:39:10;95492.84;;;22.74;100.00
5500;BME280;2772;42.700;23.304;2023-08-21T03:41:38;95480.38;;;22.70;100.00
5500;BME280;2772;42.700;23.304;2023-08-21T03:44:05;95490.44;;;22.69;100.00
5500;BME280;2772;42.700;23.304;2023-08-21T03:46:32;95487.34;;;22.71;100.00
5500;BME280;2772;42.700;23.304;2023-08-21T03:48:58;95478.69;;;22.58;100.00
5500;BME280;2772;42.700;23.304;2023-08-21T03:51:25;95481.47;;;22.62;100.00
5500;BME280;2772;42.700;23.304;2023-08-21T03:53:52;95486.94;;;22.65;100.00
5500;BME280;2772;42.700;23.304;2023-08-21T03:56:19;95479.50;;;22.59;100.00
5500;BME280;2772;42.700;23.304;2023-08-21T03:58:48;95482.59;;;22.57;100.00
5500;BME280;2772;42.700;23.304;2023-08-21T04:01:14;95480.50;;;22.47;100.00
5500;BME280;2772;42.700;23.304;2023-08-21T04:03:41;95481.28;;;22.48;100.00
5500;BME280;2772;42.700;23.304;2023-08-21T04:06:08;95486.78;;;22.51;100.00
5500;BME280;2772;42.700;23.304;2023-08-21T04:08:35;95489.19;;;22.60;100.00
5500;BME280;2772;42.700;23.304;2023-08-21T04:11:02;95495.75;;;22.55;100.00
5500;BME280;2772;42.700;23.304;2023-08-21T04:13:28;95501.19;;;22.55;100.00
5500;BME280;2772;42.700;23.304;2023-08-21T04:15:56;95495.03;;;22.62;100.00
5500;BME280;2772;42.700;23.304;2023-08-21T04:18:23;95498.19;;;22.67;100.00
5500;BME280;2772;42.700;23.304;2023-08-21T04:20:50;95497.44;;;22.67;100.00
5500;BME280;2772;42.700;23.304;2023-08-21T04:23:17;95498.59;;;22.69;100.00
5500;BME280;2772;42.700;23.304;2023-08-21T04:25:44;95508.38;;;22.77;100.00
5500;BME280;2772;42.700;23.304;2023-08-21T04:28:11;95509.53;;;22.76;100.00
5500;BME280;2772;42.700;23.304;2023-08-21T04:30:39;95506.09;;;22.79;100.00
5500;BME280;2772;42.700;23.304;2023-08-21T04:33:08;95503.84;;;22.88;100.00
5500;BME280;2772;42.700;23.304;2023-08-21T04:35:37;95500.28;;;22.84;100.00
5500;BME280;2772;42.700;23.304;2023-08-21T04:38:04;95501.91;;;22.92;100.00
5500;BME280;2772;42.700;23.304;2023-08-21T04:40:30;95503.50;;;22.97;100.00
5500;BME280;2772;42.700;23.304;2023-08-21T04:42:57;95512.13;;;23.02;100.00
5500;BME280;2772;42.700;23.304;2023-08-21T04:45:24;95510.22;;;23.10;100.00
5500;BME280;2772;42.700;23.304;2023-08-21T04:47:51;95515.44;;;23.25;100.00
5500;BME280;2772;42.700;23.304;2023-08-21T04:50:19;95513.88;;;23.28;100.00
5500;BME280;2772;42.700;23.304;2023-08-21T04:52:46;95519.44;;;23.38;100.00
5500;BME280;2772;42.700;23.304;2023-08-21T04:55:14;95524.53;;;23.47;100.00
5500;BME280;2772;42.700;23.304;2023-08-21T04:57:41;95522.63;;;23.55;100.00
5500;BME280;2772;42.700;23.304;2023-08-21T05:00:09;95531.66;;;23.62;100.00
5500;BME280;2772;42.700;23.304;2023-08-21T05:02:36;95530.50;;;23.67;100.00
5500;BME280;2772;42.700;23.304;2023-08-21T05:05:03;95527.38;;;23.65;100.00
5500;BME280;2772;42.700;23.304;2023-08-21T05:07:32;95539.84;;;23.69;100.00
5500;BME280;2772;42.700;23.304;2023-08-21T05:10:02;95531.31;;;23.74;100.00
5500;BME280;2772;42.700;23.304;2023-08-21T05:12:29;95532.50;;;23.77;100.00
5500;BME280;2772;42.700;23.304;2023-08-21T05:14:56;95535.63;;;23.79;100.00
5500;BME280;2772;42.700;23.304;2023-08-21T05:17:24;95539.53;;;23.85;100.00
5500;BME280;2772;42.700;23.304;2023-08-21T05:19:51;95531.34;;;23.78;100.00
5500;BME280;2772;42.700;23.304;2023-08-21T05:22:17;95545.41;;;23.87;100.00
5500;BME280;2772;42.700;23.304;2023-08-21T05:24:46;95550.09;;;23.93;100.00
5500;BME280;2772;42.700;23.304;2023-08-21T05:27:12;95542.69;;;23.94;100.00
5500;BME280;2772;42.700;23.304;2023-08-21T05:29:39;95540.81;;;24.01;100.00
5500;BME280;2772;42.700;23.304;2023-08-21T05:32:06;95545.56;;;24.11;100.00
5500;BME280;2772;42.700;23.304;2023-08-21T05:34:33;95547.13;;;24.09;100.00
5500;BME280;2772;42.700;23.304;2023-08-21T05:36:59;95538.56;;;24.14;100.00
5500;BME280;2772;42.700;23.304;2023-08-21T05:39:26;95540.13;;;24.15;100.00
5500;BME280;2772;42.700;23.304;2023-08-21T05:41:55;95527.31;;;24.19;100.00
5500;BME280;2772;42.700;23.304;2023-08-21T05:44:21;95531.66;;;24.30;100.00
5500;BME280;2772;42.700;23.304;2023-08-21T05:46:48;95527.78;;;24.35;100.00
5500;BME280;2772;42.700;23.304;2023-08-21T05:49:15;95537.94;;;24.45;100.00
5500;BME280;2772;42.700;23.304;2023-08-21T05:51:42;95535.97;;;24.45;100.00
5500;BME280;2772;42.700;23.304;2023-08-21T05:54:09;95531.31;;;24.46;100.00
5500;BME280;2772;42.700;23.304;2023-08-21T05:56:35;95534.81;;;24.50;100.00
5500;BME280;2772;42.700;23.304;2023-08-21T05:59:03;95527.06;;;24.62;100.00
5500;BME280;2772;42.700;23.304;2023-08-21T06:01:30;95527.91;;;24.70;100.00
5500;BME280;2772;42.700;23.304;2023-08-21T06:03:57;95531.06;;;24.86;100.00
5500;BME280;2772;42.700;23.304;2023-08-21T06:06:24;95535.75;;;24.96;100.00
5500;BME280;2772;42.700;23.304;2023-08-21T06:08:51;95531.88;;;25.11;100.00
5500;BME280;2772;42.700;23.304;2023-08-21T06:11:18;95530.31;;;25.21;100.00
5500;BME280;2772;42.700;23.304;2023-08-21T06:13:45;95535.38;;;25.33;100.00
5500;BME280;2772;42.700;23.304;2023-08-21T06:16:19;95531.91;;;25.39;100.00
5500;BME280;2772;42.700;23.304;2023-08-21T06:18:46;95541.66;;;25.47;97.39
5500;BME280;2772;42.700;23.304;2023-08-21T06:21:16;95540.88;;;25.54;96.48
5500;BME280;2772;42.700;23.304;2023-08-21T06:23:44;95539.31;;;25.49;97.27
5500;BME280;2772;42.700;23.304;2023-08-21T06:26:10;95538.53;;;25.56;97.24
5500;BME280;2772;42.700;23.304;2023-08-21T06:28:37;95540.50;;;25.55;95.42
5500;BME280;2772;42.700;23.304;2023-08-21T06:31:04;95535.41;;;25.64;98.82
5500;BME280;2772;42.700;23.304;2023-08-21T06:33:34;95538.91;;;25.75;97.90
5500;BME280;2772;42.700;23.304;2023-08-21T06:36:01;95543.94;;;25.87;96.21
5500;BME280;2772;42.700;23.304;2023-08-21T06:38:27;95544.34;;;25.96;93.46
5500;BME280;2772;42.700;23.304;2023-08-21T06:40:54;95537.69;;;26.08;92.34
5500;BME280;2772;42.700;23.304;2023-08-21T06:43:21;95548.22;;;26.16;91.43
5500;BME280;2772;42.700;23.304;2023-08-21T06:45:48;95541.16;;;26.26;91.40
5500;BME280;2772;42.700;23.304;2023-08-21T06:48:14;95542.66;;;26.37;91.04
5500;BME280;2772;42.700;23.304;2023-08-21T06:50:42;95540.28;;;26.50;90.13
5500;BME280;2772;42.700;23.304;2023-08-21T06:53:09;95539.06;;;26.58;89.01
5500;BME280;2772;42.700;23.304;2023-08-21T06:55:37;95543.75;;;26.68;87.75
5500;BME280;2772;42.700;23.304;2023-08-21T06:58:16;95541.34;;;26.74;89.01
5500;BME280;2772;42.700;23.304;2023-08-21T07:00:43;95539.34;;;26.85;88.97
5500;BME280;2772;42.700;23.304;2023-08-21T07:03:10;95539.28;;;26.95;87.52
5500;BME280;2772;42.700;23.304;2023-08-21T07:05:55;95543.94;;;27.02;87.15
5500;BME280;2772;42.700;23.304;2023-08-21T07:08:22;95547.44;;;27.02;85.27
5500;BME280;2772;42.700;23.304;2023-08-21T07:10:49;95540.38;;;27.08;84.94
5500;BME280;2772;42.700;23.304;2023-08-21T07:13:15;95540.31;;;27.15;84.62
5500;BME280;2772;42.700;23.304;2023-08-21T07:15:42;95535.22;;;27.21;84.98
5500;BME280;2772;42.700;23.304;2023-08-21T07:18:09;95536.69;;;27.32;84.49
5500;BME280;2772;42.700;23.304;2023-08-21T07:20:36;95543.34;;;27.35;83.63
5500;BME280;2772;42.700;23.304;2023-08-21T07:23:04;95536.25;;;27.41;82.54
5500;BME280;2772;42.700;23.304;2023-08-21T07:25:31;95537.75;;;27.49;81.75
5500;BME280;2772;42.700;23.304;2023-08-21T07:27:58;95536.97;;;27.48;82.30
5500;BME280;2772;42.700;23.304;2023-08-21T07:30:25;95534.13;;;27.59;82.33
5500;BME280;2772;42.700;23.304;2023-08-21T07:32:53;95528.22;;;27.64;82.78
5500;BME280;2772;42.700;23.304;2023-08-21T07:35:20;95536.38;;;27.71;80.76
5500;BME280;2772;42.700;23.304;2023-08-21T07:37:47;95532.41;;;27.79;81.65
5500;BME280;2772;42.700;23.304;2023-08-21T07:40:15;95529.97;;;27.92;80.03
5500;BME280;2772;42.700;23.304;2023-08-21T07:42:42;95525.22;;;27.96;78.59
5500;BME280;2772;42.700;23.304;2023-08-21T07:45:09;95531.81;;;27.98;79.47
5500;BME280;2772;42.700;23.304;2023-08-21T07:47:37;95524.28;;;28.09;79.60
5500;BME280;2772;42.700;23.304;2023-08-21T07:50:04;95521.81;;;28.18;77.48
5500;BME280;2772;42.700;23.304;2023-08-21T07:52:32;95520.16;;;28.28;75.99
5500;BME280;2772;42.700;23.304;2023-08-21T07:54:59;95525.47;;;28.42;75.65
5500;BME280;2772;42.700;23.304;2023-08-21T07:57:27;95527.75;;;28.50;75.73
5500;BME280;2772;42.700;23.304;2023-08-21T07:59:54;95525.66;;;28.61;74.51
5500;BME280;2772;42.700;23.304;2023-08-21T08:02:21;95516.97;;;28.66;73.36
5500;BME280;2772;42.700;23.304;2023-08-21T08:04:48;95530.94;;;28.75;73.25
5500;BME280;2772;42.700;23.304;2023-08-21T08:07:16;95521.09;;;28.78;72.57
5500;BME280;2772;42.700;23.304;2023-08-21T08:09:43;95509.56;;;28.63;73.63
5500;BME280;2772;42.700;23.304;2023-08-21T08:12:10;95505.88;;;28.73;73.27
5500;BME280;2772;42.700;23.304;2023-08-21T08:14:38;95508.53;;;28.80;73.77
5500;BME280;2772;42.700;23.304;2023-08-21T08:17:04;95508.19;;;28.78;73.26
5500;BME280;2772;42.700;23.304;2023-08-21T08:19:31;95504.97;;;28.83;74.09
5500;BME280;2772;42.700;23.304;2023-08-21T08:21:58;95507.94;;;28.96;74.71
5500;BME280;2772;42.700;23.304;2023-08-21T08:24:25;95506.59;;;29.07;74.73
5500;BME280;2772;42.700;23.304;2023-08-21T08:26:52;95505.66;;;29.17;72.09
5500;BME280;2772;42.700;23.304;2023-08-21T08:29:19;95503.63;;;29.21;71.92
5500;BME280;2772;42.700;23.304;2023-08-21T08:31:47;95500.44;;;29.26;71.22
5500;BME280;2772;42.700;23.304;2023-08-21T08:34:14;95500.38;;;29.30;70.72
5500;BME280;2772;42.700;23.304;2023-08-21T08:36:43;95493.63;;;29.34;69.83
5500;BME280;2772;42.700;23.304;2023-08-21T08:39:10;95495.91;;;29.39;70.19
5500;BME280;2772;42.700;23.304;2023-08-21T08:41:50;95488.78;;;29.42;70.94
5500;BME280;2772;42.700;23.304;2023-08-21T08:44:18;95489.44;;;29.50;71.07
5500;BME280;2772;42.700;23.304;2023-08-21T08:46:45;95493.25;;;29.56;69.33
5500;BME280;2772;42.700;23.304;2023-08-21T08:49:13;95486.97;;;29.59;68.13
5500;BME280;2772;42.700;23.304;2023-08-21T08:51:42;95488.88;;;29.62;68.63
5500;BME280;2772;42.700;23.304;2023-08-21T08:54:10;95483.38;;;29.62;67.90
5500;BME280;2772;42.700;23.304;2023-08-21T08:56:38;95487.91;;;29.72;69.41
5500;BME280;2772;42.700;23.304;2023-08-21T08:59:08;95481.16;;;29.76;65.21
5500;BME280;2772;42.700;23.304;2023-08-21T09:01:35;95482.63;;;29.81;65.52
5500;BME280;2772;42.700;23.304;2023-08-21T09:04:02;95478.56;;;29.89;64.29
5500;BME280;2772;42.700;23.304;2023-08-21T09:06:32;95478.94;;;29.91;63.94
5500;BME280;2772;42.700;23.304;2023-08-21T09:08:59;95483.22;;;29.92;62.62
5500;BME280;2772;42.700;23.304;2023-08-21T09:11:26;95487.53;;;29.93;61.02
5500;BME280;2772;42.700;23.304;2023-08-21T09:13:54;95479.28;;;29.93;61.73
5500;BME280;2772;42.700;23.304;2023-08-21T09:16:22;95484.63;;;30.00;61.61
5500;BME280;2772;42.700;23.304;2023-08-21T09:18:50;95467.78;;;29.98;61.21
5500;BME280;2772;42.700;23.304;2023-08-21T09:21:18;95468.88;;;30.04;61.02
5500;BME280;2772;42.700;23.304;2023-08-21T09:23:47;95466.47;;;30.06;61.03
5500;BME280;2772;42.700;23.304;2023-08-21T09:26:18;95464.75;;;30.12;62.66
5500;BME280;2772;42.700;23.304;2023-08-21T09:28:46;95469.75;;;30.20;62.42
5500;BME280;2772;42.700;23.304;2023-08-21T09:31:13;95462.13;;;30.28;61.80
5500;BME280;2772;42.700;23.304;2023-08-21T09:33:40;95456.91;;;30.33;61.08
5500;BME280;2772;42.700;23.304;2023-08-21T09:36:09;95459.56;;;30.37;59.45
5500;BME280;2772;42.700;23.304;2023-08-21T09:38:38;95454.78;;;30.41;58.27
5500;BME280;2772;42.700;23.304;2023-08-21T09:41:07;95448.78;;;30.46;58.16
5500;BME280;2772;42.700;23.304;2023-08-21T09:43:40;95458.84;;;30.52;59.08
5500;BME280;2772;42.700;23.304;2023-08-21T09:46:08;95442.69;;;30.54;58.33
5500;BME280;2772;42.700;23.304;2023-08-21T09:48:35;95444.88;;;30.63;56.37
5500;BME280;2772;42.700;23.304;2023-08-21T09:51:04;95448.59;;;30.72;56.14
5500;BME280;2772;42.700;23.304;2023-08-21T09:53:31;95446.06;;;30.81;54.56
5500;BME280;2772;42.700;23.304;2023-08-21T09:55:59;95445.19;;;30.84;54.00
5500;BME280;2772;42.700;23.304;2023-08-21T09:58:29;95440.97;;;30.80;54.50
5500;BME280;2772;42.700;23.304;2023-08-21T10:00:57;95430.31;;;30.82;54.69
5500;BME280;2772;42.700;23.304;2023-08-21T10:03:25;95432.53;;;30.87;55.11
5500;BME280;2772;42.700;23.304;2023-08-21T10:05:54;95427.41;;;30.89;54.54
5500;BME280;2772;42.700;23.304;2023-08-21T10:08:24;95420.16;;;30.95;53.27
5500;BME280;2772;42.700;23.304;2023-08-21T10:10:51;95426.03;;;30.97;53.50
5500;BME280;2772;42.700;23.304;2023-08-21T10:13:18;95427.50;;;31.02;51.66
5500;BME280;2772;42.700;23.304;2023-08-21T10:15:47;95417.69;;;31.01;52.17
5500;BME280;2772;42.700;23.304;2023-08-21T10:18:21;95423.53;;;31.03;51.60
5500;BME280;2772;42.700;23.304;2023-08-21T10:20:49;95415.19;;;31.06;50.05
5500;BME280;2772;42.700;23.304;2023-08-21T10:23:28;95428.09;;;31.09;50.79
5500;BME280;2772;42.700;23.304;2023-08-21T10:25:55;95419.03;;;31.09;49.42
5500;BME280;2772;42.700;23.304;2023-08-21T10:28:22;95419.31;;;31.14;50.74
5500;BME280;2772;42.700;23.304;2023-08-21T10:30:50;95407.34;;;31.21;49.84
5500;BME280;2772;42.700;23.304;2023-08-21T10:33:46;95407.28;;;31.24;49.47
5500;BME280;2772;42.700;23.304;2023-08-21T10:36:13;95402.81;;;31.30;49.46
5500;BME280;2772;42.700;23.304;2023-08-21T10:38:58;95392.47;;;31.34;49.53
5500;BME280;2772;42.700;23.304;2023-08-21T10:41:26;95391.97;;;31.39;48.93
5500;BME280;2772;42.700;23.304;2023-08-21T10:43:53;95387.22;;;31.40;48.94
5500;BME280;2772;42.700;23.304;2023-08-21T10:46:22;95396.06;;;31.47;48.59
5500;BME280;2772;42.700;23.304;2023-08-21T10:48:49;95384.53;;;31.52;48.58
5500;BME280;2772;42.700;23.304;2023-08-21T10:51:17;95380.03;;;31.58;48.40
5500;BME280;2772;42.700;23.304;2023-08-21T10:53:43;95374.66;;;31.67;47.85
5500;BME280;2772;42.700;23.304;2023-08-21T10:56:10;95365.88;;;31.72;46.04
5500;BME280;2772;42.700;23.304;2023-08-21T10:58:38;95374.47;;;31.74;46.02
5500;BME280;2772;42.700;23.304;2023-08-21T11:01:07;95367.53;;;31.82;43.21
5500;BME280;2772;42.700;23.304;2023-08-21T11:03:38;95376.66;;;31.95;42.07
5500;BME280;2772;42.700;23.304;2023-08-21T11:06:06;95368.72;;;31.97;42.19
5500;BME280;2772;42.700;23.304;2023-08-21T11:08:33;95372.81;;;32.05;41.75
5500;BME280;2772;42.700;23.304;2023-08-21T11:11:01;95360.25;;;32.04;39.92
5500;BME280;2772;42.700;23.304;2023-08-21T11:13:28;95360.94;;;32.08;39.92
5500;BME280;2772;42.700;23.304;2023-08-21T11:15:59;95365.78;;;32.17;40.91
5500;BME280;2772;42.700;23.304;2023-08-21T11:18:31;95364.25;;;32.28;40.01
5500;BME280;2772;42.700;23.304;2023-08-21T11:21:07;95357.09;;;32.31;39.96
5500;BME280;2772;42.700;23.304;2023-08-21T11:23:36;95358.44;;;32.39;39.45
5500;BME280;2772;42.700;23.304;2023-08-21T11:26:03;95367.94;;;32.51;39.48
5500;BME280;2772;42.700;23.304;2023-08-21T11:28:31;95357.34;;;32.49;39.00
5500;BME280;2772;42.700;23.304;2023-08-21T11:30:59;95358.13;;;32.50;39.11
5500;BME280;2772;42.700;23.304;2023-08-21T11:33:26;95346.31;;;32.37;38.88
5500;BME280;2772;42.700;23.304;2023-08-21T11:35:53;95355.31;;;32.24;39.34
5500;BME280;2772;42.700;23.304;2023-08-21T11:38:25;95354.56;;;32.24;37.97
5500;BME280;2772;42.700;23.304;2023-08-21T11:40:56;95350.13;;;32.26;38.04
5500;BME280;2772;42.700;23.304;2023-08-21T11:43:34;95339.75;;;32.30;38.63
5500;BME280;2772;42.700;23.304;2023-08-21T11:46:01;95345.94;;;32.34;37.71
5500;BME280;2772;42.700;23.304;2023-08-21T11:48:29;95346.63;;;32.39;38.47
5500;BME280;2772;42.700;23.304;2023-08-21T11:50:56;95350.94;;;32.40;38.39
5500;BME280;2772;42.700;23.304;2023-08-21T11:53:32;95346.63;;;32.39;38.43
5500;BME280;2772;42.700;23.304;2023-08-21T11:56:00;95352.03;;;32.42;38.05
5500;BME280;2772;42.700;23.304;2023-08-21T11:58:27;95339.59;;;32.50;37.42
5500;BME280;2772;42.700;23.304;2023-08-21T12:00:54;95338.59;;;32.57;37.09
5500;BME280;2772;42.700;23.304;2023-08-21T12:03:21;95345.97;;;32.60;37.38
5500;BME280;2772;42.700;23.304;2023-08-21T12:05:47;95342.88;;;32.58;36.79
5500;BME280;2772;42.700;23.304;2023-08-21T12:08:14;95334.94;;;32.60;36.83
5500;BME280;2772;42.700;23.304;2023-08-21T12:10:42;95342.22;;;32.66;37.19
5500;BME280;2772;42.700;23.304;2023-08-21T12:13:09;95333.81;;;32.70;36.34
5500;BME280;2772;42.700;23.304;2023-08-21T12:15:36;95333.38;;;32.71;36.20
5500;BME280;2772;42.700;23.304;2023-08-21T12:18:03;95327.09;;;32.71;36.01
5500;BME280;2772;42.700;23.304;2023-08-21T12:20:30;95321.56;;;32.71;35.81
5500;BME280;2772;42.700;23.304;2023-08-21T12:22:58;95324.53;;;32.76;35.87
5500;BME280;2772;42.700;23.304;2023-08-21T12:25:26;95327.28;;;32.76;36.62
5500;BME280;2772;42.700;23.304;2023-08-21T12:27:54;95323.19;;;32.81;36.66
5500;BME280;2772;42.700;23.304;2023-08-21T12:30:21;95323.53;;;32.83;36.72
5500;BME280;2772;42.700;23.304;2023-08-21T12:32:47;95309.09;;;32.79;36.96
5500;BME280;2772;42.700;23.304;2023-08-21T12:35:14;95321.00;;;32.76;37.54
5500;BME280;2772;42.700;23.304;2023-08-21T12:37:41;95315.81;;;32.78;37.45
5500;BME280;2772;42.700;23.304;2023-08-21T12:40:08;95310.84;;;32.73;36.94
5500;BME280;2772;42.700;23.304;2023-08-21T12:42:35;95316.06;;;32.71;36.94
5500;BME280;2772;42.700;23.304;2023-08-21T12:45:04;95307.00;;;32.70;36.67
5500;BME280;2772;42.700;23.304;2023-08-21T12:47:31;95297.19;;;32.69;37.38
5500;BME280;2772;42.700;23.304;2023-08-21T12:49:58;95305.31;;;32.73;37.63
5500;BME280;2772;42.700;23.304;2023-08-21T12:52:25;95300.91;;;32.75;37.01
5500;BME280;2772;42.700;23.304;2023-08-21T12:54:51;95297.16;;;32.82;36.76
5500;BME280;2772;42.700;23.304;2023-08-21T12:57:18;95296.94;;;32.89;36.58
5500;BME280;2772;42.700;23.304;2023-08-21T12:59:45;95290.97;;;32.90;36.03
5500;BME280;2772;42.700;23.304;2023-08-21T13:02:13;95296.38;;;32.94;35.85
5500;BME280;2772;42.700;23.304;2023-08-21T13:04:40;95282.56;;;32.94;36.19
5500;BME280;2772;42.700;23.304;2023-08-21T13:07:07;95280.16;;;32.96;36.52